Terminal Aerodrome Forecast
Issued by NWS

Home | Current Version | Previous Version | Text Only | Print | Product List | Glossary On
Versions: 1 2 3 4 5 6 7 8 9 10 11 12 13
000
FTUS45 KABQ 302300
TAFSAF
TAF
KSAF 302320Z 3100/3124 24010G18KT P6SM FEW100 SCT250
     FM310200 VRB06KT P6SM FEW250
     FM311800 26012G22KT P6SM FEW100=

USA.gov is the U.S. government's official web portal to all federal, state and local government web resources and services.